PWSweather.com
Personal Weather Stations
Station Observations
KWAWINTH17
Edelweiss Bluff, Winthrop, WA 98862

Edelweiss BluffWinthrop, WA 98862

Lat: 48.558056, Lon: -120.34

Elevation: 2129

Station Type: Davis Vantage Vue (Wireless)

High Low Average
Temperature 58.4°F14.7°C 39.9°F4.4°C 47.0°F8.3°C
Dew Point 44.8°F7.1°C 30.4°F-0.9°C 36.5°F2.5°C
Winds 8.0 mph 12.9 kmh Calm Calm 1.0 mph SW1.6 kmh SW
Wind Gusts 11.0 mph17.7 kmh -- 3.0 mph4.8 kmh
Humidity 98% 35% 71%
Pressure 30.29 in1025.7 mb 29.98 in1015.2 mb -
Precipitation 0.24 in6.1 mm - -
Hour Temp Dew Point Humidity Winds Wind Gusts Pressure Precip Precip Rate Daily Precip Total
12:00 AM 43.8°F6.6°C 39.5°F4.2°C 85% Calm Calm -- 30.00 in1015.9 mb 0.00 in0.0 mm 0.00 in0.0 mm 0.00 in0.0 mm
12:05 AM 43.7°F6.5°C 39.7°F4.3°C 86% Calm Calm -- 30.00 in1015.9 mb 0.00 in0.0 mm 0.00 in0.0 mm 0.00 in0.0 mm
12:10 AM 43.6°F6.4°C 39.6°F4.2°C 86% Calm Calm -- 30.00 in1015.9 mb 0.00 in0.0 mm 0.00 in0.0 mm 0.00 in0.0 mm
12:15 AM 43.4°F6.3°C 39.4°F4.1°C 86% Calm Calm 1.0 mph1.6 kmh 30.00 in1015.9 mb 0.00 in0.0 mm 0.00 in0.0 mm 0.00 in0.0 mm
12:20 AM 43.4°F6.3°C 39.4°F4.1°C 86% Calm Calm 1.0 mph1.6 kmh 30.00 in1015.9 mb 0.00 in0.0 mm 0.00 in0.0 mm 0.00 in0.0 mm
12:25 AM 43.3°F6.3°C 39.6°F4.2°C 87% Calm Calm -- 30.00 in1015.9 mb 0.00 in0.0 mm 0.00 in0.0 mm 0.00 in0.0 mm
12:30 AM 43.3°F6.3°C 39.6°F4.2°C 87% Calm Calm -- 30.00 in1015.9 mb 0.00 in0.0 mm 0.00 in0.0 mm 0.00 in0.0 mm
12:35 AM 43.2°F6.2°C 39.5°F4.2°C 87% Calm Calm -- 29.99 in1015.6 mb 0.00 in0.0 mm 0.00 in0.0 mm 0.00 in0.0 mm
12:40 AM 43.2°F6.2°C 39.5°F4.2°C 87% Calm Calm -- 30.00 in1015.9 mb 0.00 in0.0 mm 0.00 in0.0 mm 0.00 in0.0 mm
12:45 AM 43.1°F6.2°C 39.7°F4.3°C 88% Calm Calm -- 29.99 in1015.6 mb 0.00 in0.0 mm 0.00 in0.0 mm 0.00 in0.0 mm
12:50 AM 43.0°F6.1°C 39.6°F4.2°C 88% Calm Calm 1.0 mph1.6 kmh 30.00 in1015.9 mb 0.00 in0.0 mm 0.00 in0.0 mm 0.00 in0.0 mm
12:55 AM 43.0°F6.1°C 39.6°F4.2°C 88% Calm Calm 1.0 mph1.6 kmh 29.99 in1015.6 mb 0.00 in0.0 mm 0.00 in0.0 mm 0.00 in0.0 mm
01:00 AM 43.0°F6.1°C 39.6°F4.2°C 88% Calm Calm 1.0 mph1.6 kmh 30.00 in1015.9 mb 0.00 in0.0 mm 0.00 in0.0 mm 0.00 in0.0 mm
01:05 AM 42.9°F6.1°C 39.8°F4.3°C 89% Calm Calm -- 30.00 in1015.9 mb 0.00 in0.0 mm 0.00 in0.0 mm 0.00 in0.0 mm
01:10 AM 42.7°F5.9°C 39.9°F4.4°C 90% Calm Calm -- 30.00 in1015.9 mb 0.00 in0.0 mm 0.00 in0.0 mm 0.00 in0.0 mm
01:15 AM 42.6°F5.9°C 40.1°F4.5°C 91% Calm Calm -- 29.99 in1015.6 mb 0.00 in0.0 mm 0.00 in0.0 mm 0.00 in0.0 mm
01:20 AM 42.5°F5.8°C 40.0°F4.4°C 91% Calm Calm -- 29.99 in1015.6 mb 0.01 in0.3 mm 0.12 in3.0 mm 0.01 in0.3 mm
01:25 AM 42.4°F5.8°C 40.2°F4.6°C 92% Calm Calm -- 29.99 in1015.6 mb 0.01 in0.3 mm 0.00 in0.0 mm 0.01 in0.3 mm
01:30 AM 42.3°F5.7°C 40.4°F4.7°C 93% Calm Calm -- 29.99 in1015.6 mb 0.01 in0.3 mm 0.00 in0.0 mm 0.01 in0.3 mm
01:35 AM 42.3°F5.7°C 40.4°F4.7°C 93% Calm Calm -- 29.99 in1015.6 mb 0.02 in0.5 mm 0.12 in3.0 mm 0.02 in0.5 mm
01:40 AM 42.3°F5.7°C 40.6°F4.8°C 94% Calm Calm 1.0 mph1.6 kmh 29.99 in1015.6 mb 0.02 in0.5 mm 0.00 in0.0 mm 0.02 in0.5 mm
01:45 AM 42.3°F5.7°C 40.6°F4.8°C 94% Calm Calm -- 29.99 in1015.6 mb 0.02 in0.5 mm 0.00 in0.0 mm 0.02 in0.5 mm
01:50 AM 42.2°F5.7°C 40.5°F4.7°C 94% Calm Calm -- 29.99 in1015.6 mb 0.03 in0.8 mm 0.12 in3.0 mm 0.03 in0.8 mm
01:55 AM 42.2°F5.7°C 40.5°F4.7°C 94% Calm Calm -- 29.99 in1015.6 mb 0.04 in1.0 mm 0.12 in3.0 mm 0.04 in1.0 mm
02:00 AM 42.2°F5.7°C 40.8°F4.9°C 95% Calm Calm -- 29.99 in1015.6 mb 0.06 in1.5 mm 0.02 in0.5 mm 0.06 in1.5 mm
02:05 AM 42.2°F5.7°C 40.8°F4.9°C 95% Calm Calm -- 29.99 in1015.6 mb 0.06 in1.5 mm 0.00 in0.0 mm 0.06 in1.5 mm
02:10 AM 42.2°F5.7°C 40.8°F4.9°C 95% Calm Calm -- 29.98 in1015.2 mb 0.07 in1.8 mm 0.12 in3.0 mm 0.07 in1.8 mm
02:15 AM 42.1°F5.6°C 40.7°F4.8°C 95% Calm Calm 1.0 mph1.6 kmh 29.98 in1015.2 mb 0.08 in2.0 mm 0.12 in3.0 mm 0.08 in2.0 mm
02:20 AM 42.0°F5.6°C 40.6°F4.8°C 95% Calm Calm 1.0 mph1.6 kmh 29.98 in1015.2 mb 0.08 in2.0 mm 0.00 in0.0 mm 0.09 in2.3 mm
02:25 AM 41.9°F5.5°C 40.5°F4.7°C 95% Calm Calm 2.0 mph3.2 kmh 29.98 in1015.2 mb 0.09 in2.3 mm 0.12 in3.0 mm 0.09 in2.3 mm
02:30 AM 41.8°F5.4°C 40.7°F4.8°C 96% Calm Calm 2.0 mph3.2 kmh 29.98 in1015.2 mb 0.09 in2.3 mm 0.00 in0.0 mm 0.10 in2.5 mm
02:35 AM 41.7°F5.4°C 40.6°F4.8°C 96% Calm Calm -- 29.98 in1015.2 mb 0.09 in2.3 mm 0.00 in0.0 mm 0.10 in2.5 mm
02:40 AM 41.7°F5.4°C 40.6°F4.8°C 96% Calm Calm -- 29.98 in1015.2 mb 0.09 in2.3 mm 0.00 in0.0 mm 0.11 in2.8 mm
02:45 AM 41.8°F5.4°C 40.7°F4.8°C 96% Calm Calm -- 29.98 in1015.2 mb 0.09 in2.3 mm 0.00 in0.0 mm 0.12 in3.0 mm
02:50 AM 41.7°F5.4°C 40.6°F4.8°C 96% Calm Calm -- 29.98 in1015.2 mb 0.09 in2.3 mm 0.00 in0.0 mm 0.13 in3.3 mm
02:55 AM 41.7°F5.4°C 40.6°F4.8°C 96% Calm Calm -- 29.98 in1015.2 mb 0.09 in2.3 mm 0.00 in0.0 mm 0.13 in3.3 mm
03:00 AM 41.8°F5.4°C 40.7°F4.8°C 96% Calm Calm -- 29.98 in1015.2 mb 0.07 in1.8 mm 0.00 in0.0 mm 0.13 in3.3 mm
03:05 AM 41.8°F5.4°C 40.7°F4.8°C 96% Calm Calm -- 29.98 in1015.2 mb 0.07 in1.8 mm 0.00 in0.0 mm 0.13 in3.3 mm
03:10 AM 41.9°F5.5°C 40.8°F4.9°C 96% Calm Calm -- 29.98 in1015.2 mb 0.06 in1.5 mm 0.00 in0.0 mm 0.13 in3.3 mm
03:15 AM 41.9°F5.5°C 40.8°F4.9°C 96% Calm Calm -- 29.98 in1015.2 mb 0.06 in1.5 mm 0.00 in0.0 mm 0.13 in3.3 mm
03:20 AM 41.9°F5.5°C 40.8°F4.9°C 96% Calm Calm -- 29.98 in1015.2 mb 0.06 in1.5 mm 0.00 in0.0 mm 0.14 in3.6 mm
03:25 AM 41.9°F5.5°C 40.8°F4.9°C 96% Calm Calm -- 29.98 in1015.2 mb 0.05 in1.3 mm 0.00 in0.0 mm 0.14 in3.6 mm
03:30 AM 41.9°F5.5°C 41.1°F5.1°C 97% Calm Calm -- 29.98 in1015.2 mb 0.05 in1.3 mm 0.00 in0.0 mm 0.15 in3.8 mm
03:35 AM 41.9°F5.5°C 41.1°F5.1°C 97% Calm Calm -- 29.98 in1015.2 mb 0.05 in1.3 mm 0.00 in0.0 mm 0.15 in3.8 mm
03:40 AM 41.8°F5.4°C 41.0°F5.0°C 97% Calm Calm -- 29.98 in1015.2 mb 0.04 in1.0 mm 0.00 in0.0 mm 0.15 in3.8 mm
03:45 AM 41.8°F5.4°C 41.0°F5.0°C 97% Calm Calm -- 29.98 in1015.2 mb 0.04 in1.0 mm 0.00 in0.0 mm 0.16 in4.1 mm
03:50 AM 41.7°F5.4°C 40.9°F4.9°C 97% Calm Calm -- 29.98 in1015.2 mb 0.03 in0.8 mm 0.00 in0.0 mm 0.16 in4.1 mm
03:55 AM 41.5°F5.3°C 40.4°F4.7°C 96% Calm Calm 1.0 mph1.6 kmh 29.99 in1015.6 mb 0.03 in0.8 mm 0.00 in0.0 mm 0.16 in4.1 mm
04:00 AM 41.5°F5.3°C 40.7°F4.8°C 97% 2.0 mph NNW3.2 kmh NNW 2.0 mph3.2 kmh 29.99 in1015.6 mb 0.04 in1.0 mm 0.01 in0.3 mm 0.17 in4.3 mm
04:05 AM 41.3°F5.2°C 40.5°F4.7°C 97% Calm Calm 3.0 mph4.8 kmh 29.99 in1015.6 mb 0.03 in0.8 mm 0.00 in0.0 mm 0.17 in4.3 mm
04:10 AM 41.3°F5.2°C 40.5°F4.7°C 97% 1.0 mph NNW1.6 kmh NNW 1.0 mph1.6 kmh 29.99 in1015.6 mb 0.04 in1.0 mm 0.12 in3.0 mm 0.17 in4.3 mm
04:15 AM 41.3°F5.2°C 40.5°F4.7°C 97% 1.0 mph N1.6 kmh N 3.0 mph4.8 kmh 30.00 in1015.9 mb 0.04 in1.0 mm 0.00 in0.0 mm 0.17 in4.3 mm
04:20 AM 41.3°F5.2°C 40.5°F4.7°C 97% Calm Calm 2.0 mph3.2 kmh 30.00 in1015.9 mb 0.05 in1.3 mm 0.12 in3.0 mm 0.19 in4.8 mm
04:25 AM 41.2°F5.1°C 40.4°F4.7°C 97% Calm Calm -- 30.00 in1015.9 mb 0.06 in1.5 mm 0.12 in3.0 mm 0.20 in5.1 mm
04:30 AM 41.2°F5.1°C 40.4°F4.7°C 97% Calm Calm -- 30.00 in1015.9 mb 0.06 in1.5 mm 0.00 in0.0 mm 0.20 in5.1 mm
04:35 AM 41.2°F5.1°C 40.4°F4.7°C 97% Calm Calm -- 29.99 in1015.6 mb 0.06 in1.5 mm 0.00 in0.0 mm 0.21 in5.3 mm
04:40 AM 41.2°F5.1°C 40.4°F4.7°C 97% Calm Calm -- 29.99 in1015.6 mb 0.07 in1.8 mm 0.12 in3.0 mm 0.22 in5.6 mm
04:45 AM 41.1°F5.1°C 40.3°F4.6°C 97% Calm Calm -- 29.99 in1015.6 mb 0.06 in1.5 mm 0.00 in0.0 mm 0.22 in5.6 mm
04:50 AM 40.8°F4.9°C 39.7°F4.3°C 96% Calm Calm -- 29.99 in1015.6 mb 0.06 in1.5 mm 0.00 in0.0 mm 0.22 in5.6 mm
04:55 AM 40.8°F4.9°C 40.0°F4.4°C 97% Calm Calm -- 29.99 in1015.6 mb 0.07 in1.8 mm 0.12 in3.0 mm 0.23 in5.8 mm
05:00 AM 40.8°F4.9°C 40.0°F4.4°C 97% Calm Calm -- 29.99 in1015.6 mb 0.06 in1.5 mm 0.00 in0.0 mm 0.23 in5.8 mm
05:05 AM 40.8°F4.9°C 40.0°F4.4°C 97% Calm Calm -- 29.99 in1015.6 mb 0.06 in1.5 mm 0.00 in0.0 mm 0.23 in5.8 mm
05:10 AM 40.7°F4.8°C 39.9°F4.4°C 97% Calm Calm -- 29.99 in1015.6 mb 0.06 in1.5 mm 0.00 in0.0 mm 0.23 in5.8 mm
05:15 AM 40.8°F4.9°C 40.0°F4.4°C 97% Calm Calm -- 29.99 in1015.6 mb 0.06 in1.5 mm 0.00 in0.0 mm 0.24 in6.1 mm
05:20 AM 40.7°F4.8°C 39.9°F4.4°C 97% Calm Calm 1.0 mph1.6 kmh 29.99 in1015.6 mb 0.05 in1.3 mm 0.00 in0.0 mm 0.24 in6.1 mm
05:25 AM 40.6°F4.8°C 39.8°F4.3°C 97% Calm Calm -- 29.99 in1015.6 mb 0.04 in1.0 mm 0.00 in0.0 mm 0.24 in6.1 mm
05:30 AM 40.4°F4.7°C 39.6°F4.2°C 97% Calm Calm -- 29.99 in1015.6 mb 0.03 in0.8 mm 0.00 in0.0 mm 0.24 in6.1 mm
05:35 AM 40.3°F4.6°C 39.5°F4.2°C 97% Calm Calm 1.0 mph1.6 kmh 29.99 in1015.6 mb 0.02 in0.5 mm 0.00 in0.0 mm 0.24 in6.1 mm
05:40 AM 40.3°F4.6°C 39.5°F4.2°C 97% Calm Calm -- 29.99 in1015.6 mb 0.02 in0.5 mm 0.00 in0.0 mm 0.24 in6.1 mm
05:45 AM 40.2°F4.6°C 39.4°F4.1°C 97% Calm Calm -- 29.99 in1015.6 mb 0.02 in0.5 mm 0.00 in0.0 mm 0.24 in6.1 mm
05:50 AM 40.1°F4.5°C 39.3°F4.1°C 97% Calm Calm -- 29.99 in1015.6 mb 0.02 in0.5 mm 0.00 in0.0 mm 0.24 in6.1 mm
05:55 AM 40.1°F4.5°C 39.3°F4.1°C 97% Calm Calm -- 29.99 in1015.6 mb 0.01 in0.3 mm 0.00 in0.0 mm 0.24 in6.1 mm
06:00 AM 40.1°F4.5°C 39.3°F4.1°C 97% Calm Calm -- 29.99 in1015.6 mb 0.01 in0.3 mm 0.00 in0.0 mm 0.24 in6.1 mm
06:05 AM 40.1°F4.5°C 39.3°F4.1°C 97% Calm Calm -- 29.99 in1015.6 mb 0.01 in0.3 mm 0.00 in0.0 mm 0.24 in6.1 mm
06:10 AM 40.0°F4.4°C 39.2°F4.0°C 97% Calm Calm -- 29.99 in1015.6 mb 0.01 in0.3 mm 0.00 in0.0 mm 0.24 in6.1 mm
06:15 AM 40.0°F4.4°C 39.2°F4.0°C 97% Calm Calm -- 29.99 in1015.6 mb 0.00 in0.0 mm 0.00 in0.0 mm 0.24 in6.1 mm
06:20 AM 40.0°F4.4°C 39.2°F4.0°C 97% Calm Calm -- 29.99 in1015.6 mb 0.00 in0.0 mm 0.00 in0.0 mm 0.24 in6.1 mm
06:25 AM 39.9°F4.4°C 39.1°F3.9°C 97% Calm Calm -- 29.99 in1015.6 mb 0.00 in0.0 mm 0.00 in0.0 mm 0.24 in6.1 mm
06:30 AM 39.9°F4.4°C 39.1°F3.9°C 97% Calm Calm -- 29.99 in1015.6 mb 0.00 in0.0 mm 0.00 in0.0 mm 0.24 in6.1 mm
06:35 AM 39.9°F4.4°C 39.1°F3.9°C 97% Calm Calm -- 29.99 in1015.6 mb 0.00 in0.0 mm 0.00 in0.0 mm 0.24 in6.1 mm
06:40 AM 39.9°F4.4°C 39.1°F3.9°C 97% Calm Calm -- 29.99 in1015.6 mb 0.00 in0.0 mm 0.00 in0.0 mm 0.24 in6.1 mm
06:45 AM 39.9°F4.4°C 39.1°F3.9°C 97% Calm Calm -- 29.99 in1015.6 mb 0.00 in0.0 mm 0.00 in0.0 mm 0.24 in6.1 mm
06:50 AM 39.9°F4.4°C 39.1°F3.9°C 97% Calm Calm -- 29.99 in1015.6 mb 0.00 in0.0 mm 0.00 in0.0 mm 0.24 in6.1 mm
06:55 AM 39.9°F4.4°C 39.1°F3.9°C 97% Calm Calm -- 30.00 in1015.9 mb 0.00 in0.0 mm 0.00 in0.0 mm 0.24 in6.1 mm
07:00 AM 39.9°F4.4°C 39.1°F3.9°C 97% Calm Calm -- 30.00 in1015.9 mb 0.00 in0.0 mm 0.00 in0.0 mm 0.24 in6.1 mm
07:05 AM 39.9°F4.4°C 39.1°F3.9°C 97% Calm Calm -- 30.00 in1015.9 mb 0.00 in0.0 mm 0.00 in0.0 mm 0.24 in6.1 mm
07:10 AM 40.0°F4.4°C 39.2°F4.0°C 97% Calm Calm -- 30.00 in1015.9 mb 0.00 in0.0 mm 0.00 in0.0 mm 0.24 in6.1 mm
07:15 AM 40.1°F4.5°C 39.5°F4.2°C 98% Calm Calm -- 30.00 in1015.9 mb 0.00 in0.0 mm 0.00 in0.0 mm 0.24 in6.1 mm
07:20 AM 40.3°F4.6°C 39.7°F4.3°C 98% Calm Calm -- 30.00 in1015.9 mb 0.00 in0.0 mm 0.00 in0.0 mm 0.24 in6.1 mm
07:25 AM 40.6°F4.8°C 40.0°F4.4°C 98% Calm Calm -- 30.00 in1015.9 mb 0.00 in0.0 mm 0.00 in0.0 mm 0.24 in6.1 mm
07:30 AM 40.7°F4.8°C 40.1°F4.5°C 98% Calm Calm -- 30.00 in1015.9 mb 0.00 in0.0 mm 0.00 in0.0 mm 0.24 in6.1 mm
07:35 AM 40.8°F4.9°C 40.2°F4.6°C 98% Calm Calm -- 30.00 in1015.9 mb 0.00 in0.0 mm 0.00 in0.0 mm 0.24 in6.1 mm
07:40 AM 40.7°F4.8°C 40.1°F4.5°C 98% Calm Calm -- 30.00 in1015.9 mb 0.00 in0.0 mm 0.00 in0.0 mm 0.24 in6.1 mm
07:45 AM 40.7°F4.8°C 40.1°F4.5°C 98% Calm Calm -- 30.00 in1015.9 mb 0.00 in0.0 mm 0.00 in0.0 mm 0.24 in6.1 mm
07:50 AM 40.9°F4.9°C 40.3°F4.6°C 98% Calm Calm -- 30.00 in1015.9 mb 0.00 in0.0 mm 0.00 in0.0 mm 0.24 in6.1 mm
07:55 AM 41.1°F5.1°C 40.5°F4.7°C 98% Calm Calm -- 30.00 in1015.9 mb 0.00 in0.0 mm 0.00 in0.0 mm 0.24 in6.1 mm
08:00 AM 41.3°F5.2°C 40.7°F4.8°C 98% Calm Calm 1.0 mph1.6 kmh 30.01 in1016.3 mb 0.00 in0.0 mm 0.00 in0.0 mm 0.24 in6.1 mm
08:05 AM 41.4°F5.2°C 40.8°F4.9°C 98% Calm Calm -- 30.01 in1016.3 mb 0.00 in0.0 mm 0.00 in0.0 mm 0.24 in6.1 mm
08:10 AM 41.6°F5.3°C 41.0°F5.0°C 98% Calm Calm -- 30.01 in1016.3 mb 0.00 in0.0 mm 0.00 in0.0 mm 0.24 in6.1 mm
08:15 AM 41.8°F5.4°C 41.2°F5.1°C 98% Calm Calm -- 30.01 in1016.3 mb 0.00 in0.0 mm 0.00 in0.0 mm 0.24 in6.1 mm
08:20 AM 41.9°F5.5°C 41.3°F5.2°C 98% Calm Calm -- 30.01 in1016.3 mb 0.00 in0.0 mm 0.00 in0.0 mm 0.24 in6.1 mm
08:25 AM 42.0°F5.6°C 41.4°F5.2°C 98% Calm Calm -- 30.02 in1016.6 mb 0.00 in0.0 mm 0.00 in0.0 mm 0.24 in6.1 mm
08:30 AM 42.0°F5.6°C 41.2°F5.1°C 97% Calm Calm -- 30.02 in1016.6 mb 0.00 in0.0 mm 0.00 in0.0 mm 0.24 in6.1 mm
08:35 AM 42.1°F5.6°C 41.3°F5.2°C 97% Calm Calm -- 30.02 in1016.6 mb 0.00 in0.0 mm 0.00 in0.0 mm 0.24 in6.1 mm
08:40 AM 42.3°F5.7°C 41.5°F5.3°C 97% Calm Calm -- 30.02 in1016.6 mb 0.00 in0.0 mm 0.00 in0.0 mm 0.24 in6.1 mm
08:45 AM 42.5°F5.8°C 41.7°F5.4°C 97% Calm Calm -- 30.02 in1016.6 mb 0.00 in0.0 mm 0.00 in0.0 mm 0.24 in6.1 mm
08:50 AM 42.6°F5.9°C 41.8°F5.4°C 97% Calm Calm 1.0 mph1.6 kmh 30.02 in1016.6 mb 0.00 in0.0 mm 0.00 in0.0 mm 0.24 in6.1 mm
08:55 AM 42.7°F5.9°C 41.9°F5.5°C 97% Calm Calm -- 30.02 in1016.6 mb 0.00 in0.0 mm 0.00 in0.0 mm 0.24 in6.1 mm
09:00 AM 42.9°F6.1°C 42.1°F5.6°C 97% Calm Calm -- 30.02 in1016.6 mb 0.00 in0.0 mm 0.00 in0.0 mm 0.24 in6.1 mm
09:05 AM 42.9°F6.1°C 42.1°F5.6°C 97% Calm Calm 1.0 mph1.6 kmh 30.02 in1016.6 mb 0.00 in0.0 mm 0.00 in0.0 mm 0.24 in6.1 mm
09:10 AM 43.1°F6.2°C 42.3°F5.7°C 97% Calm Calm -- 30.02 in1016.6 mb 0.00 in0.0 mm 0.00 in0.0 mm 0.24 in6.1 mm
09:15 AM 43.3°F6.3°C 42.5°F5.8°C 97% Calm Calm -- 30.02 in1016.6 mb 0.00 in0.0 mm 0.00 in0.0 mm 0.24 in6.1 mm
09:20 AM 43.4°F6.3°C 42.6°F5.9°C 97% Calm Calm 1.0 mph1.6 kmh 30.02 in1016.6 mb 0.00 in0.0 mm 0.00 in0.0 mm 0.24 in6.1 mm
09:25 AM 43.6°F6.4°C 42.8°F6.0°C 97% Calm Calm -- 30.02 in1016.6 mb 0.00 in0.0 mm 0.00 in0.0 mm 0.24 in6.1 mm
09:30 AM 43.8°F6.6°C 43.0°F6.1°C 97% Calm Calm -- 30.02 in1016.6 mb 0.00 in0.0 mm 0.00 in0.0 mm 0.24 in6.1 mm
09:35 AM 44.2°F6.8°C 43.4°F6.3°C 97% Calm Calm 1.0 mph1.6 kmh 30.03 in1016.9 mb 0.00 in0.0 mm 0.00 in0.0 mm 0.24 in6.1 mm
09:40 AM 44.5°F6.9°C 43.7°F6.5°C 97% Calm Calm 1.0 mph1.6 kmh 30.03 in1016.9 mb 0.00 in0.0 mm 0.00 in0.0 mm 0.24 in6.1 mm
09:45 AM 44.8°F7.1°C 44.0°F6.7°C 97% Calm Calm 1.0 mph1.6 kmh 30.03 in1016.9 mb 0.00 in0.0 mm 0.00 in0.0 mm 0.24 in6.1 mm
09:50 AM 45.1°F7.3°C 44.0°F6.7°C 96% Calm Calm -- 30.03 in1016.9 mb 0.00 in0.0 mm 0.00 in0.0 mm 0.24 in6.1 mm
09:55 AM 45.5°F7.5°C 44.4°F6.9°C 96% Calm Calm 3.0 mph4.8 kmh 30.03 in1016.9 mb 0.00 in0.0 mm 0.00 in0.0 mm 0.24 in6.1 mm
10:00 AM 45.7°F7.6°C 44.0°F6.7°C 94% Calm Calm 1.0 mph1.6 kmh 30.03 in1016.9 mb 0.00 in0.0 mm 0.00 in0.0 mm 0.24 in6.1 mm
10:05 AM 46.2°F7.9°C 44.2°F6.8°C 93% Calm Calm 1.0 mph1.6 kmh 30.03 in1016.9 mb 0.00 in0.0 mm 0.00 in0.0 mm 0.24 in6.1 mm
10:10 AM 46.8°F8.2°C 44.8°F7.1°C 93% 1.0 mph E1.6 kmh E 1.0 mph1.6 kmh 30.03 in1016.9 mb 0.00 in0.0 mm 0.00 in0.0 mm 0.24 in6.1 mm
10:15 AM 47.3°F8.5°C 44.2°F6.8°C 89% Calm Calm 1.0 mph1.6 kmh 30.03 in1016.9 mb 0.00 in0.0 mm 0.00 in0.0 mm 0.24 in6.1 mm
10:20 AM 47.9°F8.8°C 42.3°F5.7°C 81% 1.0 mph NW1.6 kmh NW 7.0 mph11.3 kmh 30.04 in1017.3 mb 0.00 in0.0 mm 0.00 in0.0 mm 0.24 in6.1 mm
10:25 AM 48.7°F9.3°C 42.4°F5.8°C 79% 2.0 mph WNW3.2 kmh WNW 3.0 mph4.8 kmh 30.04 in1017.3 mb 0.00 in0.0 mm 0.00 in0.0 mm 0.24 in6.1 mm
10:30 AM 49.0°F9.4°C 38.9°F3.8°C 68% 4.0 mph WNW6.4 kmh WNW 6.0 mph9.7 kmh 30.04 in1017.3 mb 0.00 in0.0 mm 0.00 in0.0 mm 0.24 in6.1 mm
10:35 AM 49.3°F9.6°C 39.9°F4.4°C 70% 1.0 mph WNW1.6 kmh WNW 7.0 mph11.3 kmh 30.04 in1017.3 mb 0.00 in0.0 mm 0.00 in0.0 mm 0.24 in6.1 mm
10:40 AM 49.6°F9.8°C 38.7°F3.7°C 66% 1.0 mph E1.6 kmh E 6.0 mph9.7 kmh 30.04 in1017.3 mb 0.00 in0.0 mm 0.00 in0.0 mm 0.24 in6.1 mm
10:45 AM 49.8°F9.9°C 40.0°F4.4°C 69% 1.0 mph E1.6 kmh E 5.0 mph8.0 kmh 30.04 in1017.3 mb 0.00 in0.0 mm 0.00 in0.0 mm 0.24 in6.1 mm
10:50 AM 50.4°F10.2°C 38.2°F3.4°C 63% 1.0 mph E1.6 kmh E 7.0 mph11.3 kmh 30.04 in1017.3 mb 0.00 in0.0 mm 0.00 in0.0 mm 0.24 in6.1 mm
10:55 AM 50.9°F10.5°C 38.7°F3.7°C 63% Calm Calm 10.0 mph16.1 kmh 30.04 in1017.3 mb 0.00 in0.0 mm 0.00 in0.0 mm 0.24 in6.1 mm
11:00 AM 51.4°F10.8°C 37.9°F3.3°C 60% 1.0 mph N1.6 kmh N 7.0 mph11.3 kmh 30.04 in1017.3 mb 0.00 in0.0 mm 0.00 in0.0 mm 0.24 in6.1 mm
11:05 AM 51.6°F10.9°C 36.8°F2.7°C 57% 3.0 mph W4.8 kmh W 7.0 mph11.3 kmh 30.04 in1017.3 mb 0.00 in0.0 mm 0.00 in0.0 mm 0.24 in6.1 mm
11:10 AM 52.2°F11.2°C 36.5°F2.5°C 55% 2.0 mph NE3.2 kmh NE 8.0 mph12.9 kmh 30.04 in1017.3 mb 0.00 in0.0 mm 0.00 in0.0 mm 0.24 in6.1 mm
11:15 AM 52.7°F11.5°C 36.5°F2.5°C 54% 2.0 mph S3.2 kmh S 4.0 mph6.4 kmh 30.04 in1017.3 mb 0.00 in0.0 mm 0.00 in0.0 mm 0.24 in6.1 mm
11:20 AM 53.0°F11.7°C 38.1°F3.4°C 57% 2.0 mph WSW3.2 kmh WSW 5.0 mph8.0 kmh 30.04 in1017.3 mb 0.00 in0.0 mm 0.00 in0.0 mm 0.24 in6.1 mm
11:25 AM 53.5°F11.9°C 35.3°F1.8°C 50% 2.0 mph N3.2 kmh N 8.0 mph12.9 kmh 30.05 in1017.6 mb 0.00 in0.0 mm 0.00 in0.0 mm 0.24 in6.1 mm
11:30 AM 53.7°F12.1°C 37.9°F3.3°C 55% 4.0 mph NW6.4 kmh NW 6.0 mph9.7 kmh 30.05 in1017.6 mb 0.00 in0.0 mm 0.00 in0.0 mm 0.24 in6.1 mm
11:35 AM 53.8°F12.1°C 36.5°F2.5°C 52% 2.0 mph ENE3.2 kmh ENE 8.0 mph12.9 kmh 30.05 in1017.6 mb 0.00 in0.0 mm 0.00 in0.0 mm 0.24 in6.1 mm
11:40 AM 54.2°F12.3°C 35.9°F2.2°C 50% 2.0 mph W3.2 kmh W 8.0 mph12.9 kmh 30.05 in1017.6 mb 0.00 in0.0 mm 0.00 in0.0 mm 0.24 in6.1 mm
11:45 AM 54.5°F12.5°C 35.7°F2.1°C 49% 1.0 mph NW1.6 kmh NW 8.0 mph12.9 kmh 30.05 in1017.6 mb 0.00 in0.0 mm 0.00 in0.0 mm 0.24 in6.1 mm
11:50 AM 54.7°F12.6°C 35.9°F2.2°C 49% 4.0 mph WNW6.4 kmh WNW 8.0 mph12.9 kmh 30.06 in1017.9 mb 0.00 in0.0 mm 0.00 in0.0 mm 0.24 in6.1 mm
11:55 AM 54.9°F12.7°C 35.0°F1.7°C 47% 1.0 mph WSW1.6 kmh WSW 6.0 mph9.7 kmh 30.06 in1017.9 mb 0.00 in0.0 mm 0.00 in0.0 mm 0.24 in6.1 mm
12:00 PM 55.2°F12.9°C 35.3°F1.8°C 47% 3.0 mph W4.8 kmh W 7.0 mph11.3 kmh 30.06 in1017.9 mb 0.00 in0.0 mm 0.00 in0.0 mm 0.24 in6.1 mm
12:05 PM 55.7°F13.2°C 36.8°F2.7°C 49% 3.0 mph WNW4.8 kmh WNW 9.0 mph14.5 kmh 30.06 in1017.9 mb 0.00 in0.0 mm 0.00 in0.0 mm 0.24 in6.1 mm
12:10 PM 55.5°F13.1°C 36.6°F2.6°C 49% 1.0 mph W1.6 kmh W 7.0 mph11.3 kmh 30.06 in1017.9 mb 0.00 in0.0 mm 0.00 in0.0 mm 0.24 in6.1 mm
12:15 PM 55.6°F13.1°C 34.5°F1.4°C 45% 2.0 mph WSW3.2 kmh WSW 8.0 mph12.9 kmh 30.06 in1017.9 mb 0.00 in0.0 mm 0.00 in0.0 mm 0.24 in6.1 mm
12:20 PM 55.8°F13.2°C 33.6°F0.9°C 43% 8.0 mph N12.9 kmh N 8.0 mph12.9 kmh 30.06 in1017.9 mb 0.00 in0.0 mm 0.00 in0.0 mm 0.24 in6.1 mm
12:25 PM 55.7°F13.2°C 35.7°F2.1°C 47% 4.0 mph WNW6.4 kmh WNW 8.0 mph12.9 kmh 30.06 in1017.9 mb 0.00 in0.0 mm 0.00 in0.0 mm 0.24 in6.1 mm
12:30 PM 55.6°F13.1°C 32.8°F0.4°C 42% 1.0 mph WSW1.6 kmh WSW 8.0 mph12.9 kmh 30.06 in1017.9 mb 0.00 in0.0 mm 0.00 in0.0 mm 0.24 in6.1 mm
02:55 PM 58.2°F14.6°C 33.9°F1.1°C 40% 1.0 mph SW1.6 kmh SW 6.0 mph9.7 kmh 30.09 in1019.0 mb 0.00 in0.0 mm 0.00 in0.0 mm 0.24 in6.1 mm
03:00 PM 57.9°F14.4°C 31.1°F-0.5°C 36% 2.0 mph WSW3.2 kmh WSW 7.0 mph11.3 kmh 30.09 in1019.0 mb 0.00 in0.0 mm 0.00 in0.0 mm 0.24 in6.1 mm
03:05 PM 57.1°F13.9°C 32.3°F0.2°C 39% 5.0 mph SW8.0 kmh SW 11.0 mph17.7 kmh 30.09 in1019.0 mb 0.00 in0.0 mm 0.00 in0.0 mm 0.24 in6.1 mm
03:10 PM 57.2°F14.0°C 33.0°F0.6°C 40% 4.0 mph NW6.4 kmh NW 9.0 mph14.5 kmh 30.09 in1019.0 mb 0.00 in0.0 mm 0.00 in0.0 mm 0.24 in6.1 mm
03:15 PM 57.5°F14.2°C 32.0°F0.0°C 38% 2.0 mph W3.2 kmh W 6.0 mph9.7 kmh 30.09 in1019.0 mb 0.00 in0.0 mm 0.00 in0.0 mm 0.24 in6.1 mm
03:20 PM 57.4°F14.1°C 33.2°F0.7°C 40% 4.0 mph N6.4 kmh N 11.0 mph17.7 kmh 30.09 in1019.0 mb 0.00 in0.0 mm 0.00 in0.0 mm 0.24 in6.1 mm
03:25 PM 57.5°F14.2°C 31.4°F-0.3°C 37% 3.0 mph WSW4.8 kmh WSW 7.0 mph11.3 kmh 30.10 in1019.3 mb 0.00 in0.0 mm 0.00 in0.0 mm 0.24 in6.1 mm
03:30 PM 57.3°F14.1°C 31.2°F-0.4°C 37% 2.0 mph NE3.2 kmh NE 7.0 mph11.3 kmh 30.09 in1019.0 mb 0.00 in0.0 mm 0.00 in0.0 mm 0.24 in6.1 mm
03:35 PM 57.9°F14.4°C 30.4°F-0.9°C 35% 1.0 mph WNW1.6 kmh WNW 5.0 mph8.0 kmh 30.09 in1019.0 mb 0.00 in0.0 mm 0.00 in0.0 mm 0.24 in6.1 mm
03:40 PM 57.4°F14.1°C 31.3°F-0.4°C 37% Calm Calm 6.0 mph9.7 kmh 30.10 in1019.3 mb 0.00 in0.0 mm 0.00 in0.0 mm 0.24 in6.1 mm
03:45 PM 57.8°F14.3°C 33.6°F0.9°C 40% 1.0 mph WSW1.6 kmh WSW 7.0 mph11.3 kmh 30.09 in1019.0 mb 0.00 in0.0 mm 0.00 in0.0 mm 0.24 in6.1 mm
03:50 PM 58.0°F14.4°C 33.1°F0.6°C 39% 4.0 mph NW6.4 kmh NW 9.0 mph14.5 kmh 30.10 in1019.3 mb 0.00 in0.0 mm 0.00 in0.0 mm 0.24 in6.1 mm
03:55 PM 58.4°F14.7°C 33.5°F0.8°C 39% 5.0 mph NW8.0 kmh NW 5.0 mph8.0 kmh 30.10 in1019.3 mb 0.00 in0.0 mm 0.00 in0.0 mm 0.24 in6.1 mm
04:00 PM 57.7°F14.3°C 31.6°F-0.2°C 37% Calm Calm 9.0 mph14.5 kmh 30.10 in1019.3 mb 0.00 in0.0 mm 0.00 in0.0 mm 0.24 in6.1 mm
04:05 PM 56.9°F13.8°C 31.5°F-0.3°C 38% 1.0 mph W1.6 kmh W 9.0 mph14.5 kmh 30.10 in1019.3 mb 0.00 in0.0 mm 0.00 in0.0 mm 0.24 in6.1 mm
04:10 PM 56.6°F13.7°C 32.5°F0.3°C 40% 2.0 mph NW3.2 kmh NW 4.0 mph6.4 kmh 30.10 in1019.3 mb 0.00 in0.0 mm 0.00 in0.0 mm 0.24 in6.1 mm
04:15 PM 56.5°F13.6°C 31.2°F-0.4°C 38% 1.0 mph NW1.6 kmh NW 6.0 mph9.7 kmh 30.11 in1019.6 mb 0.00 in0.0 mm 0.00 in0.0 mm 0.24 in6.1 mm
04:20 PM 56.8°F13.8°C 33.3°F0.7°C 41% Calm Calm 4.0 mph6.4 kmh 30.10 in1019.3 mb 0.00 in0.0 mm 0.00 in0.0 mm 0.24 in6.1 mm
04:25 PM 57.6°F14.2°C 34.0°F1.1°C 41% 1.0 mph W1.6 kmh W 10.0 mph16.1 kmh 30.11 in1019.6 mb 0.00 in0.0 mm 0.00 in0.0 mm 0.24 in6.1 mm
04:30 PM 57.9°F14.4°C 31.7°F-0.2°C 37% 1.0 mph SW1.6 kmh SW 8.0 mph12.9 kmh 30.11 in1019.6 mb 0.00 in0.0 mm 0.00 in0.0 mm 0.24 in6.1 mm
04:35 PM 57.5°F14.2°C 32.0°F0.0°C 38% 2.0 mph WNW3.2 kmh WNW 8.0 mph12.9 kmh 30.12 in1020.0 mb 0.00 in0.0 mm 0.00 in0.0 mm 0.24 in6.1 mm
04:40 PM 57.4°F14.1°C 32.6°F0.3°C 39% 2.0 mph NNW3.2 kmh NNW 6.0 mph9.7 kmh 30.12 in1020.0 mb 0.00 in0.0 mm 0.00 in0.0 mm 0.24 in6.1 mm
04:45 PM 56.9°F13.8°C 30.9°F-0.6°C 37% 2.0 mph WNW3.2 kmh WNW 6.0 mph9.7 kmh 30.12 in1020.0 mb 0.00 in0.0 mm 0.00 in0.0 mm 0.24 in6.1 mm
04:50 PM 56.3°F13.5°C 32.2°F0.1°C 40% 2.0 mph SW3.2 kmh SW 5.0 mph8.0 kmh 30.12 in1020.0 mb 0.00 in0.0 mm 0.00 in0.0 mm 0.24 in6.1 mm
04:55 PM 56.6°F13.7°C 32.5°F0.3°C 40% Calm Calm 6.0 mph9.7 kmh 30.12 in1020.0 mb 0.00 in0.0 mm 0.00 in0.0 mm 0.24 in6.1 mm
05:00 PM 57.2°F14.0°C 32.4°F0.2°C 39% 1.0 mph WNW1.6 kmh WNW 7.0 mph11.3 kmh 30.13 in1020.3 mb 0.00 in0.0 mm 0.00 in0.0 mm 0.24 in6.1 mm
05:05 PM 57.3°F14.1°C 32.5°F0.3°C 39% 4.0 mph W6.4 kmh W 8.0 mph12.9 kmh 30.13 in1020.3 mb 0.00 in0.0 mm 0.00 in0.0 mm 0.24 in6.1 mm
05:10 PM 57.1°F13.9°C 31.7°F-0.2°C 38% 1.0 mph W1.6 kmh W 5.0 mph8.0 kmh 30.13 in1020.3 mb 0.00 in0.0 mm 0.00 in0.0 mm 0.24 in6.1 mm
05:15 PM 57.5°F14.2°C 33.3°F0.7°C 40% 1.0 mph S1.6 kmh S 5.0 mph8.0 kmh 30.13 in1020.3 mb 0.00 in0.0 mm 0.00 in0.0 mm 0.24 in6.1 mm
05:20 PM 57.8°F14.3°C 32.3°F0.2°C 38% 3.0 mph N4.8 kmh N 4.0 mph6.4 kmh 30.13 in1020.3 mb 0.00 in0.0 mm 0.00 in0.0 mm 0.24 in6.1 mm
05:25 PM 56.7°F13.7°C 31.3°F-0.4°C 38% 2.0 mph NNE3.2 kmh NNE 7.0 mph11.3 kmh 30.13 in1020.3 mb 0.00 in0.0 mm 0.00 in0.0 mm 0.24 in6.1 mm
05:30 PM 56.3°F13.5°C 32.2°F0.1°C 40% Calm Calm 3.0 mph4.8 kmh 30.13 in1020.3 mb 0.00 in0.0 mm 0.00 in0.0 mm 0.24 in6.1 mm
05:35 PM 56.3°F13.5°C 31.6°F-0.2°C 39% 3.0 mph WNW4.8 kmh WNW 7.0 mph11.3 kmh 30.13 in1020.3 mb 0.00 in0.0 mm 0.00 in0.0 mm 0.24 in6.1 mm
05:40 PM 56.8°F13.8°C 32.7°F0.4°C 40% Calm Calm 8.0 mph12.9 kmh 30.13 in1020.3 mb 0.00 in0.0 mm 0.00 in0.0 mm 0.24 in6.1 mm
05:45 PM 56.9°F13.8°C 32.8°F0.4°C 40% 2.0 mph WNW3.2 kmh WNW 7.0 mph11.3 kmh 30.13 in1020.3 mb 0.00 in0.0 mm 0.00 in0.0 mm 0.24 in6.1 mm
05:50 PM 56.4°F13.6°C 31.7°F-0.2°C 39% Calm Calm 6.0 mph9.7 kmh 30.14 in1020.7 mb 0.00 in0.0 mm 0.00 in0.0 mm 0.24 in6.1 mm
05:55 PM 55.9°F13.3°C 31.9°F-0.1°C 40% 1.0 mph NE1.6 kmh NE 8.0 mph12.9 kmh 30.14 in1020.7 mb 0.00 in0.0 mm 0.00 in0.0 mm 0.24 in6.1 mm
06:00 PM 55.4°F13.0°C 32.6°F0.3°C 42% 2.0 mph SW3.2 kmh SW 6.0 mph9.7 kmh 30.14 in1020.7 mb 0.00 in0.0 mm 0.00 in0.0 mm 0.24 in6.1 mm
06:05 PM 54.9°F12.7°C 32.8°F0.4°C 43% 3.0 mph NNW4.8 kmh NNW 6.0 mph9.7 kmh 30.14 in1020.7 mb 0.00 in0.0 mm 0.00 in0.0 mm 0.24 in6.1 mm
06:10 PM 54.3°F12.4°C 32.2°F0.1°C 43% Calm Calm 4.0 mph6.4 kmh 30.14 in1020.7 mb 0.00 in0.0 mm 0.00 in0.0 mm 0.24 in6.1 mm
06:15 PM 53.8°F12.1°C 32.9°F0.5°C 45% 2.0 mph W3.2 kmh W 6.0 mph9.7 kmh 30.14 in1020.7 mb 0.00 in0.0 mm 0.00 in0.0 mm 0.24 in6.1 mm
06:20 PM 53.2°F11.8°C 31.8°F-0.1°C 44% 3.0 mph NW4.8 kmh NW 4.0 mph6.4 kmh 30.14 in1020.7 mb 0.00 in0.0 mm 0.00 in0.0 mm 0.24 in6.1 mm
06:25 PM 52.9°F11.6°C 32.1°F0.1°C 45% Calm Calm 9.0 mph14.5 kmh 30.15 in1021.0 mb 0.00 in0.0 mm 0.00 in0.0 mm 0.24 in6.1 mm
06:30 PM 52.9°F11.6°C 32.1°F0.1°C 45% Calm Calm 8.0 mph12.9 kmh 30.15 in1021.0 mb 0.00 in0.0 mm 0.00 in0.0 mm 0.24 in6.1 mm
06:35 PM 52.9°F11.6°C 32.6°F0.3°C 46% Calm Calm 7.0 mph11.3 kmh 30.15 in1021.0 mb 0.00 in0.0 mm 0.00 in0.0 mm 0.24 in6.1 mm
06:40 PM 52.8°F11.6°C 31.4°F-0.3°C 44% 2.0 mph WNW3.2 kmh WNW 7.0 mph11.3 kmh 30.15 in1021.0 mb 0.00 in0.0 mm 0.00 in0.0 mm 0.24 in6.1 mm
06:45 PM 52.8°F11.6°C 31.4°F-0.3°C 44% Calm Calm 3.0 mph4.8 kmh 30.15 in1021.0 mb 0.00 in0.0 mm 0.00 in0.0 mm 0.24 in6.1 mm
06:50 PM 53.0°F11.7°C 31.6°F-0.2°C 44% 1.0 mph NW1.6 kmh NW 4.0 mph6.4 kmh 30.15 in1021.0 mb 0.00 in0.0 mm 0.00 in0.0 mm 0.24 in6.1 mm
06:55 PM 52.8°F11.6°C 32.0°F0.0°C 45% Calm Calm 3.0 mph4.8 kmh 30.15 in1021.0 mb 0.00 in0.0 mm 0.00 in0.0 mm 0.24 in6.1 mm
07:00 PM 52.8°F11.6°C 32.0°F0.0°C 45% 1.0 mph WNW1.6 kmh WNW 4.0 mph6.4 kmh 30.15 in1021.0 mb 0.00 in0.0 mm 0.00 in0.0 mm 0.24 in6.1 mm
07:05 PM 52.5°F11.4°C 32.3°F0.2°C 46% 1.0 mph NW1.6 kmh NW 3.0 mph4.8 kmh 30.16 in1021.3 mb 0.00 in0.0 mm 0.00 in0.0 mm 0.24 in6.1 mm
07:10 PM 52.2°F11.2°C 33.6°F0.9°C 49% Calm Calm 1.0 mph1.6 kmh 30.16 in1021.3 mb 0.00 in0.0 mm 0.00 in0.0 mm 0.24 in6.1 mm
07:15 PM 51.7°F10.9°C 32.6°F0.3°C 48% 1.0 mph ENE1.6 kmh ENE 4.0 mph6.4 kmh 30.16 in1021.3 mb 0.00 in0.0 mm 0.00 in0.0 mm 0.24 in6.1 mm
07:20 PM 51.3°F10.7°C 31.7°F-0.2°C 47% 2.0 mph NW3.2 kmh NW 6.0 mph9.7 kmh 30.16 in1021.3 mb 0.00 in0.0 mm 0.00 in0.0 mm 0.24 in6.1 mm
07:25 PM 51.2°F10.7°C 32.1°F0.1°C 48% Calm Calm 5.0 mph8.0 kmh 30.16 in1021.3 mb 0.00 in0.0 mm 0.00 in0.0 mm 0.24 in6.1 mm
07:30 PM 51.0°F10.6°C 33.0°F0.6°C 50% 1.0 mph NW1.6 kmh NW 4.0 mph6.4 kmh 30.17 in1021.7 mb 0.00 in0.0 mm 0.00 in0.0 mm 0.24 in6.1 mm
07:35 PM 50.8°F10.4°C 31.8°F-0.1°C 48% 1.0 mph N1.6 kmh N 6.0 mph9.7 kmh 30.17 in1021.7 mb 0.00 in0.0 mm 0.00 in0.0 mm 0.24 in6.1 mm
07:40 PM 50.6°F10.3°C 32.1°F0.1°C 49% Calm Calm 2.0 mph3.2 kmh 30.17 in1021.7 mb 0.00 in0.0 mm 0.00 in0.0 mm 0.24 in6.1 mm
07:45 PM 50.3°F10.2°C 33.8°F1.0°C 53% Calm Calm 1.0 mph1.6 kmh 30.17 in1021.7 mb 0.00 in0.0 mm 0.00 in0.0 mm 0.24 in6.1 mm
07:50 PM 49.9°F9.9°C 32.4°F0.2°C 51% Calm Calm 3.0 mph4.8 kmh 30.17 in1021.7 mb 0.00 in0.0 mm 0.00 in0.0 mm 0.24 in6.1 mm
07:55 PM 50.0°F10.0°C 33.0°F0.6°C 52% Calm Calm 1.0 mph1.6 kmh 30.18 in1022.0 mb 0.00 in0.0 mm 0.00 in0.0 mm 0.24 in6.1 mm
08:00 PM 49.9°F9.9°C 32.4°F0.2°C 51% Calm Calm 2.0 mph3.2 kmh 30.18 in1022.0 mb 0.00 in0.0 mm 0.00 in0.0 mm 0.24 in6.1 mm
08:05 PM 49.9°F9.9°C 32.9°F0.5°C 52% Calm Calm 3.0 mph4.8 kmh 30.18 in1022.0 mb 0.00 in0.0 mm 0.00 in0.0 mm 0.24 in6.1 mm
08:10 PM 49.6°F9.8°C 33.6°F0.9°C 54% Calm Calm 1.0 mph1.6 kmh 30.18 in1022.0 mb 0.00 in0.0 mm 0.00 in0.0 mm 0.24 in6.1 mm
08:15 PM 49.3°F9.6°C 32.8°F0.4°C 53% Calm Calm 1.0 mph1.6 kmh 30.18 in1022.0 mb 0.00 in0.0 mm 0.00 in0.0 mm 0.24 in6.1 mm
08:20 PM 49.1°F9.5°C 32.7°F0.4°C 53% Calm Calm 2.0 mph3.2 kmh 30.19 in1022.4 mb 0.00 in0.0 mm 0.00 in0.0 mm 0.24 in6.1 mm
08:25 PM 49.0°F9.4°C 33.5°F0.8°C 55% Calm Calm 1.0 mph1.6 kmh 30.19 in1022.4 mb 0.00 in0.0 mm 0.00 in0.0 mm 0.24 in6.1 mm
08:30 PM 49.0°F9.4°C 32.6°F0.3°C 53% Calm Calm 3.0 mph4.8 kmh 30.19 in1022.4 mb 0.00 in0.0 mm 0.00 in0.0 mm 0.24 in6.1 mm
08:35 PM 49.2°F9.6°C 32.8°F0.4°C 53% Calm Calm 3.0 mph4.8 kmh 30.19 in1022.4 mb 0.00 in0.0 mm 0.00 in0.0 mm 0.24 in6.1 mm
08:40 PM 48.9°F9.4°C 32.9°F0.5°C 54% Calm Calm 3.0 mph4.8 kmh 30.19 in1022.4 mb 0.00 in0.0 mm 0.00 in0.0 mm 0.24 in6.1 mm
08:45 PM 48.9°F9.4°C 32.9°F0.5°C 54% 1.0 mph SE1.6 kmh SE 3.0 mph4.8 kmh 30.19 in1022.4 mb 0.00 in0.0 mm 0.00 in0.0 mm 0.24 in6.1 mm
08:50 PM 49.0°F9.4°C 32.6°F0.3°C 53% Calm Calm 6.0 mph9.7 kmh 30.20 in1022.7 mb 0.00 in0.0 mm 0.00 in0.0 mm 0.24 in6.1 mm
08:55 PM 48.7°F9.3°C 33.2°F0.7°C 55% Calm Calm 2.0 mph3.2 kmh 30.20 in1022.7 mb 0.00 in0.0 mm 0.00 in0.0 mm 0.24 in6.1 mm
09:00 PM 48.4°F9.1°C 32.9°F0.5°C 55% Calm Calm 4.0 mph6.4 kmh 30.20 in1022.7 mb 0.00 in0.0 mm 0.00 in0.0 mm 0.24 in6.1 mm
09:05 PM 48.2°F9.0°C 33.6°F0.9°C 57% Calm Calm 2.0 mph3.2 kmh 30.21 in1023.0 mb 0.00 in0.0 mm 0.00 in0.0 mm 0.24 in6.1 mm
09:10 PM 47.9°F8.8°C 33.4°F0.8°C 57% 1.0 mph WNW1.6 kmh WNW 1.0 mph1.6 kmh 30.21 in1023.0 mb 0.00 in0.0 mm 0.00 in0.0 mm 0.24 in6.1 mm
09:15 PM 47.6°F8.7°C 32.6°F0.3°C 56% 1.0 mph NW1.6 kmh NW 2.0 mph3.2 kmh 30.21 in1023.0 mb 0.00 in0.0 mm 0.00 in0.0 mm 0.24 in6.1 mm
09:20 PM 47.5°F8.6°C 33.4°F0.8°C 58% Calm Calm 1.0 mph1.6 kmh 30.21 in1023.0 mb 0.00 in0.0 mm 0.00 in0.0 mm 0.24 in6.1 mm
09:30 PM 47.2°F8.4°C 32.7°F0.4°C 57% 1.0 mph NNW1.6 kmh NNW 2.0 mph3.2 kmh 30.21 in1023.0 mb 0.00 in0.0 mm 0.00 in0.0 mm 0.24 in6.1 mm
09:35 PM 47.2°F8.4°C 32.7°F0.4°C 57% 1.0 mph W1.6 kmh W 3.0 mph4.8 kmh 30.22 in1023.4 mb 0.00 in0.0 mm 0.00 in0.0 mm 0.24 in6.1 mm
09:40 PM 47.2°F8.4°C 33.1°F0.6°C 58% Calm Calm 2.0 mph3.2 kmh 30.22 in1023.4 mb 0.00 in0.0 mm 0.00 in0.0 mm 0.24 in6.1 mm
09:45 PM 47.2°F8.4°C 33.6°F0.9°C 59% Calm Calm 2.0 mph3.2 kmh 30.22 in1023.4 mb 0.00 in0.0 mm 0.00 in0.0 mm 0.24 in6.1 mm
09:50 PM 47.0°F8.3°C 33.4°F0.8°C 59% Calm Calm 1.0 mph1.6 kmh 30.22 in1023.4 mb 0.00 in0.0 mm 0.00 in0.0 mm 0.24 in6.1 mm
09:55 PM 46.7°F8.2°C 33.1°F0.6°C 59% 1.0 mph NNW1.6 kmh NNW 2.0 mph3.2 kmh 30.23 in1023.7 mb 0.00 in0.0 mm 0.00 in0.0 mm 0.24 in6.1 mm
10:00 PM 46.7°F8.2°C 33.1°F0.6°C 59% 3.0 mph NNW4.8 kmh NNW 4.0 mph6.4 kmh 30.23 in1023.7 mb 0.00 in0.0 mm 0.00 in0.0 mm 0.24 in6.1 mm
10:05 PM 46.7°F8.2°C 32.7°F0.4°C 58% 1.0 mph N1.6 kmh N 3.0 mph4.8 kmh 30.23 in1023.7 mb 0.00 in0.0 mm 0.00 in0.0 mm 0.24 in6.1 mm
10:10 PM 46.7°F8.2°C 33.1°F0.6°C 59% Calm Calm 5.0 mph8.0 kmh 30.23 in1023.7 mb 0.00 in0.0 mm 0.00 in0.0 mm 0.24 in6.1 mm
10:15 PM 46.7°F8.2°C 33.1°F0.6°C 59% Calm Calm 2.0 mph3.2 kmh 30.23 in1023.7 mb 0.00 in0.0 mm 0.00 in0.0 mm 0.24 in6.1 mm
10:20 PM 46.5°F8.1°C 32.9°F0.5°C 59% 2.0 mph WNW3.2 kmh WNW 3.0 mph4.8 kmh 30.23 in1023.7 mb 0.00 in0.0 mm 0.00 in0.0 mm 0.24 in6.1 mm
10:25 PM 46.4°F8.0°C 32.8°F0.4°C 59% Calm Calm 1.0 mph1.6 kmh 30.24 in1024.0 mb 0.00 in0.0 mm 0.00 in0.0 mm 0.24 in6.1 mm
10:30 PM 46.0°F7.8°C 32.9°F0.5°C 60% Calm Calm 1.0 mph1.6 kmh 30.24 in1024.0 mb 0.00 in0.0 mm 0.00 in0.0 mm 0.24 in6.1 mm
10:35 PM 45.7°F7.6°C 33.0°F0.6°C 61% Calm Calm 1.0 mph1.6 kmh 30.24 in1024.0 mb 0.00 in0.0 mm 0.00 in0.0 mm 0.24 in6.1 mm
10:40 PM 45.4°F7.4°C 33.1°F0.6°C 62% Calm Calm 1.0 mph1.6 kmh 30.24 in1024.0 mb 0.00 in0.0 mm 0.00 in0.0 mm 0.24 in6.1 mm
10:45 PM 45.1°F7.3°C 34.0°F1.1°C 65% Calm Calm -- 30.25 in1024.4 mb 0.00 in0.0 mm 0.00 in0.0 mm 0.24 in6.1 mm
10:50 PM 44.7°F7.1°C 32.8°F0.4°C 63% Calm Calm -- 30.25 in1024.4 mb 0.00 in0.0 mm 0.00 in0.0 mm 0.24 in6.1 mm
10:55 PM 44.3°F6.8°C 32.9°F0.5°C 64% Calm Calm -- 30.25 in1024.4 mb 0.00 in0.0 mm 0.00 in0.0 mm 0.24 in6.1 mm
11:00 PM 44.0°F6.7°C 33.0°F0.6°C 65% Calm Calm -- 30.25 in1024.4 mb 0.00 in0.0 mm 0.00 in0.0 mm 0.24 in6.1 mm
11:05 PM 43.9°F6.6°C 32.9°F0.5°C 65% Calm Calm -- 30.26 in1024.7 mb 0.00 in0.0 mm 0.00 in0.0 mm 0.24 in6.1 mm
11:10 PM 43.9°F6.6°C 32.9°F0.5°C 65% Calm Calm 1.0 mph1.6 kmh 30.26 in1024.7 mb 0.00 in0.0 mm 0.00 in0.0 mm 0.24 in6.1 mm
11:15 PM 43.9°F6.6°C 32.9°F0.5°C 65% Calm Calm 1.0 mph1.6 kmh 30.26 in1024.7 mb 0.00 in0.0 mm 0.00 in0.0 mm 0.24 in6.1 mm
11:20 PM 43.9°F6.6°C 32.9°F0.5°C 65% Calm Calm 1.0 mph1.6 kmh 30.26 in1024.7 mb 0.00 in0.0 mm 0.00 in0.0 mm 0.24 in6.1 mm
11:25 PM 43.8°F6.6°C 32.8°F0.4°C 65% Calm Calm 1.0 mph1.6 kmh 30.26 in1024.7 mb 0.00 in0.0 mm 0.00 in0.0 mm 0.24 in6.1 mm
11:30 PM 43.7°F6.5°C 32.7°F0.4°C 65% Calm Calm 1.0 mph1.6 kmh 30.26 in1024.7 mb 0.00 in0.0 mm 0.00 in0.0 mm 0.24 in6.1 mm
11:35 PM 43.5°F6.4°C 32.9°F0.5°C 66% Calm Calm -- 30.27 in1025.1 mb 0.00 in0.0 mm 0.00 in0.0 mm 0.24 in6.1 mm
11:40 PM 43.2°F6.2°C 32.6°F0.3°C 66% Calm Calm -- 30.27 in1025.1 mb 0.00 in0.0 mm 0.00 in0.0 mm 0.24 in6.1 mm
11:45 PM 43.0°F6.1°C 32.4°F0.2°C 66% Calm Calm -- 30.27 in1025.1 mb 0.00 in0.0 mm 0.00 in0.0 mm 0.24 in6.1 mm
11:50 PM 42.7°F5.9°C 31.7°F-0.2°C 65% Calm Calm 1.0 mph1.6 kmh 30.27 in1025.1 mb 0.00 in0.0 mm 0.00 in0.0 mm 0.24 in6.1 mm
11:55 PM 42.7°F5.9°C 32.1°F0.1°C 66% Calm Calm -- 30.27 in1025.1 mb 0.00 in0.0 mm 0.00 in0.0 mm 0.24 in6.1 mm